createdAt,value
2019-04-23T00:02:53.437Z,7.20
2019-04-23T00:05:38.078Z,7.10
2019-04-23T00:07:58.850Z,7.10
2019-04-23T00:10:28.778Z,6.90
2019-04-23T00:13:12.757Z,6.30
2019-04-23T00:15:45.296Z,7.10
2019-04-23T00:18:10.166Z,7.10
2019-04-23T00:20:39.229Z,7.00
2019-04-23T00:25:49.091Z,6.90
2019-04-23T00:28:16.438Z,7.07
2019-04-23T00:30:55.228Z,6.87
2019-04-23T00:33:20.245Z,7.13
2019-04-23T00:40:58.236Z,6.83
2019-04-23T00:43:27.107Z,6.83
2019-04-23T00:45:59.651Z,7.10
2019-04-23T00:51:11.663Z,6.43
2019-04-23T00:53:28.286Z,7.13
2019-04-23T00:56:19.165Z,7.07
2019-04-23T00:58:33.706Z,7.07
2019-04-23T01:01:00.366Z,6.53
2019-04-23T01:03:25.200Z,6.80
2019-04-23T01:05:58.864Z,6.40
2019-04-23T01:08:33.232Z,7.20
2019-04-23T01:11:08.223Z,7.07
2019-04-23T01:13:44.283Z,6.83
2019-04-23T01:16:09.969Z,6.40
2019-04-23T01:20:59.041Z,6.33
2019-04-23T01:23:53.830Z,6.83
2019-04-23T01:26:38.842Z,6.70
2019-04-23T01:29:12.641Z,6.63
2019-04-23T01:31:49.327Z,7.10
2019-04-23T01:34:20.172Z,6.97
2019-04-23T01:36:41.219Z,6.70
2019-04-23T01:39:17.383Z,6.70
2019-04-23T01:41:48.054Z,6.90
2019-04-23T01:44:25.362Z,7.23
2019-04-23T01:46:51.078Z,6.93
2019-04-23T01:49:25.093Z,6.30
2019-04-23T01:51:55.740Z,6.10
2019-04-23T01:54:17.801Z,6.70
2019-04-23T01:56:47.303Z,6.47
2019-04-23T02:01:53.169Z,7.10
2019-04-23T02:04:24.421Z,7.23
2019-04-23T02:06:51.738Z,6.33
2019-04-23T02:09:26.016Z,6.57
2019-04-23T02:11:55.256Z,6.57
2019-04-23T02:16:55.051Z,6.13
2019-04-23T02:19:23.297Z,6.87
2019-04-23T02:22:23.099Z,6.73
2019-04-23T02:24:47.674Z,6.30
2019-04-23T02:27:13.333Z,6.80
2019-04-23T02:29:58.522Z,6.53
2019-04-23T02:32:19.976Z,7.10
2019-04-23T02:37:35.920Z,6.93
2019-04-23T02:44:56.434Z,7.30
2019-04-23T02:47:25.380Z,6.67
2019-04-23T02:50:09.135Z,7.17
2019-04-23T02:52:24.931Z,6.27
2019-04-23T02:55:29.374Z,6.73
2019-04-23T02:57:18.657Z,7.13
2019-04-23T03:15:11.075Z,6.73
2019-04-23T03:17:36.997Z,6.40
2019-04-23T03:20:14.771Z,6.70
2019-04-23T03:22:58.965Z,6.73
2019-04-23T03:27:56.166Z,7.43
2019-04-23T03:30:51.451Z,7.23
2019-04-23T03:36:21.325Z,7.20
2019-04-23T03:40:50.439Z,7.03
2019-04-23T03:48:09.665Z,7.63
2019-04-23T03:50:38.930Z,9.13
2019-04-23T03:53:27.936Z,12.07
2019-04-23T03:55:37.394Z,12.00
2019-04-23T03:58:07.629Z,14.30
2019-04-23T04:00:37.912Z,11.40
2019-04-23T04:03:26.998Z,11.60
2019-04-23T04:08:16.009Z,7.97
2019-04-23T04:10:49.384Z,7.47
2019-04-23T04:13:20.031Z,8.43
2019-04-23T04:25:49.341Z,16.60
2019-04-23T04:36:07.424Z,8.73
2019-04-23T04:38:38.518Z,7.87
2019-04-23T04:41:04.272Z,6.67
2019-04-23T04:43:31.770Z,7.40
2019-04-23T04:46:15.052Z,7.43
2019-04-23T04:48:23.054Z,7.57
2019-04-23T04:50:49.248Z,8.23
2019-04-23T04:56:06.874Z,7.63
2019-04-23T04:58:32.388Z,6.73
2019-04-23T05:08:46.731Z,6.90
2019-04-23T05:11:21.514Z,7.53
2019-04-23T05:13:43.576Z,6.40
2019-04-23T05:15:58.224Z,10.17
2019-04-23T05:18:41.854Z,6.87
2019-04-23T05:21:21.378Z,7.20
2019-04-23T05:26:21.114Z,6.93
2019-04-23T05:28:55.473Z,7.07
2019-04-23T05:31:18.606Z,7.30
2019-04-23T05:33:46.436Z,7.33
2019-04-23T05:41:27.110Z,7.43
2019-04-23T05:43:46.701Z,6.47
2019-04-23T05:48:52.591Z,6.83
2019-04-23T05:51:33.509Z,6.50
2019-04-23T05:56:21.080Z,6.50
2019-04-23T05:58:52.207Z,6.37
2019-04-23T06:06:37.775Z,6.97
2019-04-23T06:14:06.577Z,6.33
2019-04-23T06:16:36.374Z,6.20
2019-04-23T06:19:07.942Z,6.80
2019-04-23T06:21:44.279Z,6.00
2019-04-23T06:24:13.109Z,5.80
2019-04-23T06:26:40.138Z,6.17
2019-04-23T06:29:19.418Z,7.20
2019-04-23T06:31:40.773Z,7.47
2019-04-23T06:34:12.295Z,8.10
2019-04-23T06:36:38.869Z,7.20
2019-04-23T06:39:00.213Z,7.20
2019-04-23T06:41:41.830Z,7.17
2019-04-23T06:44:25.391Z,7.30
2019-04-23T06:47:01.796Z,8.53
2019-04-23T06:54:40.614Z,6.83
2019-04-23T06:57:09.091Z,6.57
2019-04-23T06:59:41.272Z,6.87
2019-04-23T07:04:37.877Z,6.93
2019-04-23T07:07:25.682Z,7.13
2019-04-23T07:09:26.292Z,7.27
2019-04-23T07:12:05.601Z,6.60
2019-04-23T07:14:44.802Z,6.87
2019-04-23T07:17:03.920Z,6.97
2019-04-23T07:19:37.154Z,6.93
2019-04-23T07:22:16.049Z,6.83
2019-04-23T07:24:41.957Z,6.70
2019-04-23T07:27:18.179Z,6.80
2019-04-23T07:29:56.555Z,7.20
2019-04-23T07:32:15.160Z,6.63
2019-04-23T07:35:00.896Z,6.57
2019-04-23T07:37:24.100Z,7.00
2019-04-23T07:40:19.954Z,6.60
2019-04-23T07:42:54.846Z,7.07
2019-04-23T07:45:24.102Z,6.67
2019-04-23T07:48:11.039Z,6.87
2019-04-23T08:00:45.119Z,7.00
2019-04-23T08:05:55.350Z,7.00
2019-04-23T08:08:11.806Z,6.23
2019-04-23T08:11:10.966Z,7.03
2019-04-23T08:13:22.795Z,6.43
2019-04-23T08:15:53.988Z,7.10
2019-04-23T08:18:29.687Z,6.20
2019-04-23T08:21:10.508Z,7.30
2019-04-23T08:23:52.179Z,7.77
2019-04-23T08:29:03.584Z,6.93
2019-04-23T08:34:05.522Z,6.70
2019-04-23T08:36:34.226Z,6.93
2019-04-23T08:38:57.011Z,7.33
2019-04-23T08:41:33.768Z,6.72
2019-04-23T08:44:15.713Z,6.70
2019-04-23T08:47:50.750Z,6.85
2019-04-23T08:49:35.739Z,7.17
2019-04-23T08:52:18.368Z,7.20
2019-04-23T08:54:48.087Z,8.17
2019-04-23T08:59:44.073Z,7.60
2019-04-23T09:04:43.636Z,7.47
2019-04-23T09:09:45.457Z,7.50
2019-04-23T09:12:14.761Z,7.77
2019-04-23T09:14:42.189Z,7.97
2019-04-23T09:17:13.715Z,8.37
2019-04-23T09:19:56.381Z,8.37
2019-04-23T09:27:23.475Z,8.57
2019-04-23T09:29:51.559Z,7.77
2019-04-23T09:37:40.430Z,7.93
2019-04-23T09:40:10.555Z,8.23
2019-04-23T09:42:38.442Z,10.07
2019-04-23T09:45:12.996Z,9.57
2019-04-23T09:47:58.492Z,7.80
2019-04-23T09:50:26.325Z,8.53
2019-04-23T09:53:07.912Z,9.40
2019-04-23T09:55:27.489Z,7.67
2019-04-23T09:57:56.767Z,9.00
2019-04-23T10:00:33.005Z,8.43
2019-04-23T10:02:49.880Z,8.87
2019-04-23T10:05:16.676Z,8.87
2019-04-23T10:07:44.147Z,9.70
2019-04-23T10:10:01.649Z,9.20
2019-04-23T10:12:32.080Z,9.83
2019-04-23T10:15:09.933Z,10.23
2019-04-23T10:17:31.908Z,8.57
2019-04-23T10:20:02.553Z,9.93
2019-04-23T10:22:34.505Z,11.87
2019-04-23T10:25:03.439Z,12.20
2019-04-23T10:27:32.941Z,19.57
2019-04-23T10:30:01.854Z,10.33
2019-04-23T10:32:31.799Z,10.37
2019-04-23T10:35:10.194Z,20.73
2019-04-23T10:37:40.089Z,22.70
2019-04-23T10:40:05.420Z,13.73
2019-04-23T10:42:35.669Z,9.77
2019-04-23T10:45:20.050Z,17.37
2019-04-23T10:48:27.987Z,14.87
2019-04-23T10:50:50.985Z,10.37
2019-04-23T10:56:00.947Z,9.10
2019-04-23T10:58:30.396Z,8.13
2019-04-23T11:01:00.990Z,8.47
2019-04-23T11:08:31.229Z,9.10
2019-04-23T11:11:07.717Z,9.07
2019-04-23T11:13:37.788Z,10.30
2019-04-23T11:18:55.335Z,9.47
2019-04-23T11:21:13.972Z,8.93
2019-04-23T11:23:43.013Z,8.60
2019-04-23T11:26:14.175Z,9.17
2019-04-23T11:28:44.209Z,9.07
2019-04-23T11:31:23.694Z,9.13
2019-04-23T11:38:56.004Z,9.40
2019-04-23T11:41:25.121Z,8.40
2019-04-23T11:43:53.704Z,9.40
2019-04-23T11:46:41.236Z,8.77
2019-04-23T11:53:54.643Z,9.00
2019-04-23T11:57:04.753Z,9.30
2019-04-23T11:58:47.610Z,9.37
2019-04-23T12:01:49.226Z,9.57
2019-04-23T12:04:24.817Z,9.53
2019-04-23T12:06:52.820Z,9.63
2019-04-23T12:09:34.859Z,10.77
2019-04-23T12:14:36.381Z,9.80
2019-04-23T12:17:13.081Z,10.37
2019-04-23T12:22:10.372Z,10.07
2019-04-23T12:25:03.734Z,10.17
2019-04-23T12:27:20.256Z,9.10
2019-04-23T12:29:37.458Z,10.17
2019-04-23T12:32:42.547Z,10.67
2019-04-23T12:35:12.965Z,9.80
2019-04-23T12:52:41.254Z,10.33
2019-04-23T12:57:40.987Z,10.20
2019-04-23T13:00:14.963Z,9.77
2019-04-23T13:02:46.491Z,10.60
2019-04-23T13:05:12.580Z,10.73
2019-04-23T13:15:15.852Z,11.97
2019-04-23T13:20:19.426Z,15.50
2019-04-23T13:25:26.993Z,13.27
2019-04-23T13:28:02.293Z,11.13
2019-04-23T13:30:31.491Z,12.80
2019-04-23T13:33:02.781Z,13.13
2019-04-23T13:43:14.380Z,12.57
2019-04-23T13:48:13.481Z,13.67
2019-04-23T13:55:42.523Z,24.13
2019-04-23T14:00:55.705Z,10.93
2019-04-23T14:03:21.697Z,11.70
2019-04-23T14:06:18.181Z,13.53
2019-04-23T14:08:47.317Z,14.73
2019-04-23T14:11:19.483Z,20.83
2019-04-23T14:13:49.623Z,18.07
2019-04-23T14:26:32.629Z,12.23
2019-04-23T14:28:44.855Z,23.40
2019-04-23T14:31:10.557Z,20.17
2019-04-23T14:33:52.854Z,27.17
2019-04-23T14:36:17.361Z,39.50
2019-04-23T14:43:58.109Z,80.77
2019-04-23T14:48:52.087Z,45.70
2019-04-23T14:51:39.687Z,38.43
2019-04-23T14:53:55.070Z,29.70
2019-04-23T14:56:20.182Z,24.20
2019-04-23T14:59:01.709Z,32.90
2019-04-23T15:03:49.115Z,78.00
2019-04-23T15:06:27.736Z,42.87
2019-04-23T15:09:04.286Z,81.93
2019-04-23T15:13:55.293Z,22.43
2019-04-23T15:24:17.542Z,11.07
2019-04-23T15:28:56.067Z,10.57
2019-04-23T15:41:53.032Z,9.83
2019-04-23T15:51:52.517Z,9.50
2019-04-23T15:54:22.503Z,9.90
2019-04-23T15:56:51.933Z,10.30
2019-04-23T16:01:40.579Z,9.50
2019-04-23T16:03:53.850Z,10.90
2019-04-23T16:06:27.279Z,10.60
2019-04-23T16:09:16.426Z,13.30
2019-04-23T16:11:51.729Z,10.17
2019-04-23T16:14:35.672Z,9.77
2019-04-23T16:17:04.450Z,9.23
2019-04-23T16:19:43.130Z,18.87
2019-04-23T16:22:16.736Z,11.87
2019-04-23T16:24:49.016Z,10.27
2019-04-23T16:27:11.130Z,12.00
2019-04-23T16:30:00.130Z,17.77
2019-04-23T16:32:31.417Z,11.60
2019-04-23T16:34:54.141Z,10.10
2019-04-23T16:37:20.138Z,9.63
2019-04-23T16:39:56.809Z,9.50
2019-04-23T16:42:23.670Z,10.13
2019-04-23T16:47:24.563Z,11.10
2019-04-23T16:52:26.436Z,12.20
2019-04-23T16:57:43.520Z,11.50
2019-04-23T17:00:15.222Z,11.13
2019-04-23T17:02:24.605Z,10.80
2019-04-23T17:05:01.638Z,9.67
2019-04-23T17:07:21.059Z,10.57
2019-04-23T17:10:08.236Z,9.93
2019-04-23T17:12:17.569Z,9.20
2019-04-23T17:15:03.271Z,10.07
2019-04-23T17:17:26.551Z,10.87
2019-04-23T17:20:06.500Z,12.50
2019-04-23T17:22:31.509Z,13.27
2019-04-23T17:27:41.244Z,14.67
2019-04-23T17:30:09.666Z,11.93
2019-04-23T17:32:35.781Z,13.00
2019-04-23T17:35:17.815Z,15.10
2019-04-23T17:37:57.803Z,12.13
2019-04-23T17:40:39.546Z,14.90
2019-04-23T17:43:04.654Z,18.00
2019-04-23T17:48:16.049Z,18.30
2019-04-23T17:50:53.151Z,14.40
2019-04-23T17:53:29.859Z,29.53
2019-04-23T17:56:01.061Z,23.00
2019-04-23T17:58:23.289Z,28.90
2019-04-23T18:01:03.914Z,16.27
2019-04-23T18:03:25.842Z,15.67
2019-04-23T18:06:04.065Z,14.23
2019-04-23T18:11:09.252Z,8.23
2019-04-23T18:13:27.731Z,10.60
2019-04-23T18:16:06.730Z,8.57
2019-04-23T18:21:23.258Z,6.83
2019-04-23T18:24:13.358Z,6.90
2019-04-23T18:26:51.683Z,6.57
2019-04-23T18:32:01.619Z,6.97
2019-04-23T18:34:44.136Z,6.47
2019-04-23T18:37:09.294Z,5.60
2019-04-23T18:39:54.583Z,6.47
2019-04-23T18:42:34.430Z,5.13
2019-04-23T18:44:56.229Z,5.10
2019-04-23T18:47:37.813Z,4.93
2019-04-23T18:49:54.807Z,6.13
2019-04-23T18:52:32.802Z,5.90
2019-04-23T18:54:53.931Z,5.73
2019-04-23T18:57:30.378Z,6.00
2019-04-23T19:00:07.585Z,6.53
2019-04-23T19:02:42.892Z,7.40
2019-04-23T19:05:14.876Z,6.37
2019-04-23T19:08:00.969Z,6.47
2019-04-23T19:10:28.821Z,7.37
2019-04-23T19:12:48.614Z,6.83
2019-04-23T19:15:33.666Z,6.83
2019-04-23T19:17:50.532Z,7.37
2019-04-23T19:20:45.235Z,8.70
2019-04-23T19:23:19.085Z,7.90
2019-04-23T19:25:28.037Z,8.50
2019-04-23T19:28:10.439Z,8.03
2019-04-23T19:30:49.642Z,7.70
2019-04-23T19:33:31.466Z,7.70
2019-04-23T19:35:59.379Z,8.23
2019-04-23T19:38:13.606Z,7.53
2019-04-23T19:40:56.646Z,7.93
2019-04-23T19:43:12.145Z,7.00
2019-04-23T19:45:49.730Z,7.33
2019-04-23T19:48:25.400Z,6.27
2019-04-23T19:51:04.339Z,6.43
2019-04-23T19:53:26.002Z,7.10
2019-04-23T19:56:04.449Z,7.87
2019-04-23T19:58:25.668Z,6.63
2019-04-23T20:03:41.382Z,7.50
2019-04-23T20:06:16.612Z,7.60
2019-04-23T20:08:34.534Z,7.47
2019-04-23T20:10:58.959Z,7.40
2019-04-23T20:13:37.725Z,7.20
2019-04-23T20:18:42.964Z,7.43
2019-04-23T20:20:58.971Z,7.50
2019-04-23T20:23:55.910Z,8.60
2019-04-23T20:34:07.647Z,10.73
2019-04-23T20:36:25.988Z,8.00
2019-04-23T20:38:55.391Z,7.77
2019-04-23T20:41:26.219Z,7.13
2019-04-23T20:43:55.837Z,7.50
2019-04-23T20:46:43.065Z,9.47
2019-04-23T20:49:09.459Z,7.43
2019-04-23T20:51:41.298Z,7.50
2019-04-23T20:54:18.334Z,8.00
2019-04-23T20:56:51.802Z,8.13
2019-04-23T20:59:12.300Z,8.60
2019-04-23T21:02:07.102Z,8.53
2019-04-23T21:04:37.876Z,9.07
2019-04-23T21:06:56.538Z,8.13
2019-04-23T21:09:45.309Z,8.60
2019-04-23T21:12:04.817Z,9.20
2019-04-23T21:14:51.614Z,9.90
2019-04-23T21:17:05.397Z,9.50
2019-04-23T21:19:40.132Z,10.47
2019-04-23T21:24:43.368Z,9.00
2019-04-23T21:27:20.302Z,9.80
2019-04-23T21:29:53.603Z,10.33
2019-04-23T21:32:24.771Z,9.97
2019-04-23T21:34:55.930Z,11.40
2019-04-23T21:37:42.784Z,12.63
2019-04-23T21:40:32.499Z,10.77
2019-04-23T21:43:01.391Z,12.13
2019-04-23T21:45:35.693Z,10.33
2019-04-23T21:50:37.415Z,13.13
2019-04-23T21:55:39.098Z,9.73
2019-04-23T22:00:36.732Z,10.87
2019-04-23T22:05:44.432Z,12.57
2019-04-23T22:08:03.493Z,12.03
2019-04-23T22:10:31.955Z,11.33
2019-04-23T22:15:45.081Z,11.03
2019-04-23T22:18:06.443Z,11.63
2019-04-23T22:20:43.653Z,10.53
2019-04-23T22:23:12.592Z,10.73
2019-04-23T22:25:48.913Z,10.03
2019-04-23T22:28:10.409Z,9.83
2019-04-23T22:30:49.472Z,10.70
2019-04-23T22:35:49.491Z,10.93
2019-04-23T22:38:18.783Z,10.30
2019-04-23T22:40:49.813Z,10.77
2019-04-23T22:43:20.576Z,11.03
2019-04-23T22:48:29.621Z,10.40
2019-04-23T22:51:03.141Z,12.10
2019-04-23T22:53:13.805Z,11.07
2019-04-23T22:55:57.448Z,13.30
2019-04-23T22:58:19.338Z,11.47
2019-04-23T23:01:12.603Z,13.10
2019-04-23T23:03:36.143Z,11.40
2019-04-23T23:06:12.636Z,12.77
2019-04-23T23:08:43.698Z,13.30
2019-04-23T23:11:08.720Z,11.73
2019-04-23T23:13:53.441Z,12.13
2019-04-23T23:16:07.561Z,12.50
2019-04-23T23:18:59.762Z,11.87
2019-04-23T23:23:40.787Z,12.97
2019-04-23T23:28:42.596Z,14.93
2019-04-23T23:31:13.892Z,15.03
2019-04-23T23:36:12.449Z,15.73
2019-04-23T23:38:50.840Z,15.67
2019-04-23T23:41:24.960Z,16.27
2019-04-23T23:44:20.888Z,17.80
2019-04-23T23:48:48.506Z,17.30
2019-04-23T23:51:23.324Z,17.93
2019-04-23T23:56:15.389Z,17.50
